createdAt,value
2022-11-27T00:00:17.592Z,17.57
2022-11-27T00:03:04.660Z,20.23
2022-11-27T00:05:58.865Z,21.40
2022-11-27T00:08:47.034Z,21.43
2022-11-27T00:11:34.516Z,23.03
2022-11-27T00:14:21.481Z,20.40
2022-11-27T00:17:08.469Z,25.47
2022-11-27T00:19:55.515Z,24.10
2022-11-27T00:22:42.510Z,26.27
2022-11-27T00:25:29.568Z,26.27
2022-11-27T00:28:16.561Z,24.43
2022-11-27T00:31:09.133Z,24.50
2022-11-27T00:34:04.304Z,25.13
2022-11-27T00:36:51.317Z,27.07
2022-11-27T00:39:38.320Z,26.33
2022-11-27T00:42:25.363Z,24.90
2022-11-27T00:45:12.439Z,24.87
2022-11-27T00:48:02.311Z,25.50
2022-11-27T00:50:49.360Z,25.33
2022-11-27T00:53:36.411Z,25.83
2022-11-27T00:56:26.855Z,25.07
2022-11-27T00:59:13.971Z,26.07
2022-11-27T01:02:01.026Z,24.57
2022-11-27T01:04:48.888Z,24.03
2022-11-27T01:07:35.893Z,25.20
2022-11-27T01:10:23.474Z,23.87
2022-11-27T01:13:10.373Z,23.50
2022-11-27T01:16:03.917Z,24.23
2022-11-27T01:18:53.623Z,23.37
2022-11-27T01:21:41.316Z,23.00
2022-11-27T01:24:28.244Z,22.57
2022-11-27T01:27:15.232Z,19.87
2022-11-27T01:30:02.165Z,19.80
2022-11-27T01:32:49.149Z,18.13
2022-11-27T01:35:36.068Z,17.60
2022-11-27T01:38:24.469Z,17.00
2022-11-27T01:41:18.287Z,17.03
2022-11-27T01:44:23.701Z,15.50
2022-11-27T01:47:18.023Z,16.87
2022-11-27T01:50:10.515Z,16.17
2022-11-27T01:53:02.821Z,15.73
2022-11-27T01:55:56.080Z,14.43
2022-11-27T01:58:43.256Z,13.80
2022-11-27T02:01:30.271Z,13.20
2022-11-27T02:04:18.611Z,13.37
2022-11-27T02:07:05.644Z,12.63
2022-11-27T02:09:52.749Z,13.63
2022-11-27T02:12:46.466Z,13.47
2022-11-27T02:16:05.450Z,11.77
2022-11-27T02:19:19.020Z,11.43
2022-11-27T02:22:36.440Z,12.17
2022-11-27T02:25:31.499Z,12.37
2022-11-27T02:29:12.651Z,12.10
2022-11-27T02:32:15.851Z,10.50
2022-11-27T02:35:22.307Z,11.07
2022-11-27T02:38:43.737Z,12.63
2022-11-27T02:41:37.204Z,11.83
2022-11-27T02:44:30.438Z,13.23
2022-11-27T02:47:18.667Z,11.47
2022-11-27T02:50:09.840Z,12.50
2022-11-27T02:53:01.649Z,12.77
2022-11-27T02:55:50.428Z,11.40
2022-11-27T02:58:38.555Z,11.80
2022-11-27T03:01:29.786Z,11.37
2022-11-27T03:04:21.762Z,12.50
2022-11-27T03:07:36.120Z,11.50
2022-11-27T03:10:40.187Z,11.90
2022-11-27T03:13:28.693Z,12.93
2022-11-27T03:16:35.839Z,12.70
2022-11-27T03:19:47.351Z,13.03
2022-11-27T03:22:34.517Z,12.67
2022-11-27T03:25:22.488Z,12.07
2022-11-27T03:28:10.976Z,13.83
2022-11-27T03:30:58.049Z,12.23
2022-11-27T03:33:45.174Z,13.20
2022-11-27T03:36:32.191Z,13.83
2022-11-27T03:39:21.537Z,13.53
2022-11-27T03:42:14.503Z,14.07
2022-11-27T03:45:15.468Z,14.17
2022-11-27T03:48:24.805Z,14.03
2022-11-27T03:51:41.766Z,13.83
2022-11-27T03:54:44.432Z,12.93
2022-11-27T03:57:41.026Z,12.77
2022-11-27T04:00:33.045Z,13.70
2022-11-27T04:03:29.327Z,13.00
2022-11-27T04:06:16.892Z,13.60
2022-11-27T04:09:04.768Z,13.43
2022-11-27T04:11:51.805Z,13.53
2022-11-27T04:14:39.251Z,14.20
2022-11-27T04:17:26.643Z,12.73
2022-11-27T04:20:14.823Z,13.47
2022-11-27T04:23:01.886Z,14.03
2022-11-27T04:25:49.715Z,14.10
2022-11-27T04:28:37.100Z,13.27
2022-11-27T04:31:24.081Z,13.83
2022-11-27T04:34:11.248Z,14.10
2022-11-27T04:36:58.552Z,14.47
2022-11-27T04:39:45.532Z,13.23
2022-11-27T04:42:32.556Z,15.27
2022-11-27T04:45:19.647Z,14.53
2022-11-27T04:48:06.736Z,13.70
2022-11-27T04:50:55.381Z,14.10
2022-11-27T04:53:42.544Z,14.17
2022-11-27T04:56:29.512Z,14.00
2022-11-27T04:59:16.488Z,13.40
2022-11-27T05:02:03.483Z,13.13
2022-11-27T05:04:50.475Z,12.63
2022-11-27T05:07:37.749Z,13.20
2022-11-27T05:10:24.758Z,13.50
2022-11-27T05:13:11.737Z,13.90
2022-11-27T05:15:58.871Z,13.33
2022-11-27T05:18:45.912Z,12.70
2022-11-27T05:21:33.623Z,14.07
2022-11-27T05:24:22.815Z,14.13
2022-11-27T05:27:10.372Z,13.53
2022-11-27T05:29:57.503Z,14.03
2022-11-27T05:32:44.411Z,13.53
2022-11-27T05:35:31.337Z,13.17
2022-11-27T05:38:18.381Z,14.17
2022-11-27T05:41:05.798Z,14.83
2022-11-27T05:43:53.044Z,16.33
2022-11-27T05:46:41.028Z,14.80
2022-11-27T05:49:28.094Z,14.17
2022-11-27T05:52:15.091Z,13.00
2022-11-27T05:55:02.027Z,14.33
2022-11-27T05:57:48.995Z,13.13
2022-11-27T06:00:35.948Z,14.37
2022-11-27T06:03:23.029Z,14.30
2022-11-27T06:06:13.457Z,14.57
2022-11-27T06:09:00.831Z,14.03
2022-11-27T06:11:47.800Z,13.40
2022-11-27T06:14:35.305Z,14.37
2022-11-27T06:17:22.258Z,14.43
2022-11-27T06:20:09.739Z,13.73
2022-11-27T06:22:57.588Z,13.10
2022-11-27T06:25:44.633Z,12.30
2022-11-27T06:28:31.616Z,13.57
2022-11-27T06:31:21.657Z,14.47
2022-11-27T06:34:08.750Z,13.20
2022-11-27T06:36:55.729Z,11.60
2022-11-27T06:39:42.719Z,12.40
2022-11-27T06:42:30.489Z,13.07
2022-11-27T06:45:17.588Z,12.17
2022-11-27T06:48:04.716Z,12.50
2022-11-27T06:50:51.907Z,13.23
2022-11-27T06:53:39.333Z,12.73
2022-11-27T06:56:28.338Z,13.43
2022-11-27T06:59:15.372Z,12.53
2022-11-27T07:02:02.503Z,12.27
2022-11-27T07:04:49.547Z,13.33
2022-11-27T07:07:39.796Z,12.43
2022-11-27T07:10:33.924Z,11.87
2022-11-27T07:13:20.904Z,11.60
2022-11-27T07:16:09.950Z,11.77
2022-11-27T07:19:00.104Z,12.57
2022-11-27T07:21:47.033Z,11.67
2022-11-27T07:24:33.992Z,11.63
2022-11-27T07:27:20.943Z,11.80
2022-11-27T07:30:08.552Z,11.47
2022-11-27T07:32:55.511Z,11.23
2022-11-27T07:35:42.476Z,11.07
2022-11-27T07:38:29.544Z,11.20
2022-11-27T07:41:17.059Z,12.53
2022-11-27T07:44:04.232Z,11.30
2022-11-27T07:46:51.125Z,9.97
2022-11-27T07:49:38.111Z,9.60
2022-11-27T07:52:25.081Z,11.10
2022-11-27T07:55:12.123Z,9.23
2022-11-27T07:57:59.178Z,9.80
2022-11-27T08:00:46.240Z,9.83
2022-11-27T08:03:33.327Z,8.63
2022-11-27T08:06:23.143Z,9.17
2022-11-27T08:09:10.149Z,9.20
2022-11-27T08:11:57.162Z,9.73
2022-11-27T08:14:44.124Z,10.20
2022-11-27T08:17:31.277Z,9.70
2022-11-27T08:20:19.886Z,8.53
2022-11-27T08:23:06.823Z,9.73
2022-11-27T08:25:53.841Z,9.03
2022-11-27T08:28:41.882Z,9.73
2022-11-27T08:31:29.493Z,9.33
2022-11-27T08:34:16.596Z,9.00
2022-11-27T08:37:07.377Z,9.17
2022-11-27T08:39:54.635Z,9.23
2022-11-27T08:42:42.037Z,9.30
2022-11-27T08:45:29.456Z,9.20
2022-11-27T08:48:16.994Z,9.37
2022-11-27T08:51:09.847Z,9.30
2022-11-27T08:53:56.852Z,9.00
2022-11-27T08:56:43.779Z,9.37
2022-11-27T08:59:31.056Z,11.27
2022-11-27T09:02:18.195Z,8.50
2022-11-27T09:05:06.036Z,9.17
2022-11-27T09:07:53.126Z,9.07
2022-11-27T09:10:40.188Z,8.40
2022-11-27T09:13:27.483Z,8.50
2022-11-27T09:16:17.102Z,9.03
2022-11-27T09:19:04.098Z,8.63
2022-11-27T09:21:51.138Z,8.90
2022-11-27T09:24:38.407Z,8.70
2022-11-27T09:27:25.622Z,7.93
2022-11-27T09:30:13.180Z,8.03
2022-11-27T09:33:02.242Z,7.93
2022-11-27T09:35:49.544Z,8.57
2022-11-27T09:38:37.619Z,8.83
2022-11-27T09:41:39.151Z,8.23
2022-11-27T09:44:43.069Z,8.03
2022-11-27T09:47:41.894Z,7.60
2022-11-27T09:50:34.540Z,8.17
2022-11-27T09:53:41.701Z,8.00
2022-11-27T09:56:30.120Z,7.27
2022-11-27T09:59:19.772Z,7.53
2022-11-27T10:02:19.991Z,7.60
2022-11-27T10:05:18.247Z,7.33
2022-11-27T10:08:36.292Z,7.90
2022-11-27T10:11:58.689Z,7.97
2022-11-27T10:15:10.987Z,7.23
2022-11-27T10:18:00.747Z,7.13
2022-11-27T10:20:53.736Z,7.77
2022-11-27T10:23:56.188Z,7.40
2022-11-27T10:26:49.162Z,7.30
2022-11-27T10:29:52.148Z,6.83
2022-11-27T10:32:55.966Z,8.20
2022-11-27T10:35:46.764Z,7.10
2022-11-27T10:38:37.348Z,7.13
2022-11-27T10:41:48.808Z,6.97
2022-11-27T10:44:44.771Z,7.57
2022-11-27T10:47:33.819Z,6.60
2022-11-27T10:50:21.031Z,7.17
2022-11-27T10:53:16.400Z,6.80
2022-11-27T10:56:13.893Z,7.23
2022-11-27T10:59:05.384Z,6.30
2022-11-27T11:01:57.576Z,6.30
2022-11-27T11:04:44.528Z,6.43
2022-11-27T11:07:31.615Z,6.80
2022-11-27T11:10:53.615Z,6.30
2022-11-27T11:13:40.472Z,6.57
2022-11-27T11:16:34.825Z,5.63
2022-11-27T11:19:34.195Z,5.70
2022-11-27T11:22:22.254Z,5.60
2022-11-27T11:25:18.016Z,6.27
2022-11-27T11:28:05.264Z,6.10
2022-11-27T11:30:56.204Z,5.53
2022-11-27T11:33:57.608Z,5.50
2022-11-27T11:36:58.769Z,6.43
2022-11-27T11:39:49.231Z,5.83
2022-11-27T11:42:38.240Z,6.20
2022-11-27T11:45:32.865Z,6.20
2022-11-27T11:48:28.277Z,5.70
2022-11-27T11:51:29.157Z,5.20
2022-11-27T11:54:47.258Z,5.77
2022-11-27T11:58:24.969Z,5.90
2022-11-27T12:01:33.321Z,5.83
2022-11-27T12:04:32.587Z,6.23
2022-11-27T12:07:51.800Z,5.20
2022-11-27T12:10:57.800Z,5.20
2022-11-27T12:14:04.627Z,5.10
2022-11-27T12:17:21.187Z,5.40
2022-11-27T12:20:24.437Z,5.20
2022-11-27T12:23:32.848Z,5.07
2022-11-27T12:26:37.609Z,5.80
2022-11-27T12:30:00.149Z,5.87
2022-11-27T12:32:57.068Z,5.80
2022-11-27T12:36:02.978Z,5.47
2022-11-27T12:39:13.637Z,6.47
2022-11-27T12:42:09.195Z,5.67
2022-11-27T12:45:17.650Z,5.53
2022-11-27T12:48:17.351Z,5.00
2022-11-27T12:51:11.026Z,4.60
2022-11-27T12:54:01.227Z,5.53
2022-11-27T12:56:55.008Z,5.30
2022-11-27T12:59:44.318Z,5.50
2022-11-27T13:02:40.127Z,5.00
2022-11-27T13:05:47.759Z,5.37
2022-11-27T13:09:03.197Z,4.60
2022-11-27T13:11:50.864Z,5.23
2022-11-27T13:14:42.223Z,4.90
2022-11-27T13:17:42.673Z,5.20
2022-11-27T13:20:37.008Z,4.73
2022-11-27T13:23:24.149Z,4.43
2022-11-27T13:26:24.858Z,4.43
2022-11-27T13:29:33.579Z,4.67
2022-11-27T13:32:34.511Z,4.77
2022-11-27T13:35:25.806Z,5.00
2022-11-27T13:38:21.387Z,4.57
2022-11-27T13:41:08.859Z,3.80
2022-11-27T13:43:55.912Z,4.50
2022-11-27T13:46:54.905Z,4.63
2022-11-27T13:49:43.593Z,4.03
2022-11-27T13:52:31.050Z,5.03
2022-11-27T13:55:27.957Z,3.80
2022-11-27T13:58:14.953Z,4.00
2022-11-27T14:01:31.573Z,3.60
2022-11-27T14:04:19.163Z,3.40
2022-11-27T14:07:11.802Z,3.43
2022-11-27T14:10:09.177Z,3.60
2022-11-27T14:13:01.771Z,3.63
2022-11-27T14:16:26.891Z,3.53
2022-11-27T14:19:34.740Z,3.80
2022-11-27T14:22:48.523Z,3.60
2022-11-27T14:25:43.037Z,2.93
2022-11-27T14:28:30.964Z,3.33
2022-11-27T14:31:38.307Z,3.17
2022-11-27T14:34:28.796Z,3.07
2022-11-27T14:37:26.014Z,2.90
2022-11-27T14:40:20.723Z,3.20
2022-11-27T14:43:15.109Z,3.50
2022-11-27T14:46:03.010Z,3.30
2022-11-27T14:48:55.497Z,3.33
2022-11-27T14:51:43.665Z,3.20
2022-11-27T14:54:36.988Z,3.17
2022-11-27T14:57:26.690Z,3.03
2022-11-27T15:00:21.679Z,3.83
2022-11-27T15:03:10.920Z,2.97
2022-11-27T15:06:05.803Z,2.70
2022-11-27T15:09:15.859Z,3.50
2022-11-27T15:12:14.311Z,2.90
2022-11-27T15:15:20.444Z,2.67
2022-11-27T15:18:09.215Z,3.00
2022-11-27T15:20:57.679Z,2.60
2022-11-27T15:23:46.710Z,2.60
2022-11-27T15:26:35.441Z,2.90
2022-11-27T15:29:46.160Z,2.60
2022-11-27T15:33:02.125Z,2.87
2022-11-27T15:35:53.790Z,3.27
2022-11-27T15:38:41.812Z,3.00
2022-11-27T15:41:32.272Z,3.07
2022-11-27T15:44:19.342Z,3.57
2022-11-27T15:47:07.392Z,2.77
2022-11-27T15:49:54.754Z,3.30
2022-11-27T15:52:42.010Z,2.90
2022-11-27T15:55:29.061Z,3.07
2022-11-27T15:58:16.015Z,2.73
2022-11-27T16:01:04.921Z,3.40
2022-11-27T16:03:51.897Z,2.60
2022-11-27T16:06:38.979Z,2.80
2022-11-27T16:09:26.018Z,2.80
2022-11-27T16:12:13.027Z,2.87
2022-11-27T16:14:59.977Z,3.37
2022-11-27T16:17:47.160Z,2.60
2022-11-27T16:20:34.100Z,2.90
2022-11-27T16:23:21.099Z,2.90
2022-11-27T16:26:11.075Z,2.83
2022-11-27T16:28:58.543Z,2.50
2022-11-27T16:31:45.638Z,3.50
2022-11-27T16:34:32.796Z,2.40
2022-11-27T16:37:19.951Z,2.87
2022-11-27T16:40:07.659Z,2.53
2022-11-27T16:42:54.648Z,2.93
2022-11-27T16:45:41.833Z,2.97
2022-11-27T16:48:28.785Z,2.90
2022-11-27T16:51:20.060Z,3.40
2022-11-27T16:54:11.295Z,3.10
2022-11-27T16:56:58.308Z,3.07
2022-11-27T16:59:45.320Z,3.03
2022-11-27T17:02:32.437Z,3.07
2022-11-27T17:05:19.783Z,3.03
2022-11-27T17:08:06.797Z,2.87
2022-11-27T17:10:53.737Z,2.90
2022-11-27T17:13:41.162Z,3.57
2022-11-27T17:16:28.883Z,3.20
2022-11-27T17:19:16.592Z,3.17
2022-11-27T17:22:03.574Z,3.20
2022-11-27T17:24:51.866Z,3.00
2022-11-27T17:27:38.828Z,3.20
2022-11-27T17:30:25.924Z,2.83
2022-11-27T17:33:12.893Z,2.90
2022-11-27T17:35:59.939Z,3.17
2022-11-27T17:38:46.899Z,3.00
2022-11-27T17:41:34.997Z,3.20
2022-11-27T17:44:22.111Z,3.40
2022-11-27T17:47:09.081Z,3.13
2022-11-27T17:49:56.098Z,2.90
2022-11-27T17:52:43.103Z,2.97
2022-11-27T17:55:30.026Z,2.70
2022-11-27T17:58:17.031Z,3.37
2022-11-27T18:01:06.466Z,2.77
2022-11-27T18:03:59.995Z,3.30
2022-11-27T18:06:46.941Z,2.67
2022-11-27T18:09:33.974Z,2.80
2022-11-27T18:12:21.188Z,3.13
2022-11-27T18:15:09.764Z,2.70
2022-11-27T18:17:56.743Z,2.50
2022-11-27T18:20:43.898Z,3.23
2022-11-27T18:23:30.895Z,3.40
2022-11-27T18:26:19.680Z,3.17
2022-11-27T18:29:06.849Z,2.63
2022-11-27T18:31:53.852Z,2.80
2022-11-27T18:34:41.507Z,3.17
2022-11-27T18:37:28.584Z,3.07
2022-11-27T18:40:15.620Z,2.70
2022-11-27T18:43:02.602Z,3.00
2022-11-27T18:45:49.655Z,2.50
2022-11-27T18:48:37.213Z,2.90
2022-11-27T18:51:25.708Z,3.00
2022-11-27T18:54:12.702Z,2.80
2022-11-27T18:57:00.000Z,2.70
2022-11-27T18:59:46.931Z,2.70
2022-11-27T19:02:33.936Z,2.83
2022-11-27T19:05:20.997Z,2.70
2022-11-27T19:08:09.488Z,2.90
2022-11-27T19:11:02.160Z,3.00
2022-11-27T19:13:50.965Z,3.23
2022-11-27T19:16:46.608Z,2.77
2022-11-27T19:19:53.997Z,3.50
2022-11-27T19:22:41.149Z,3.40
2022-11-27T19:25:28.133Z,3.17
2022-11-27T19:28:15.369Z,3.40
2022-11-27T19:31:07.722Z,3.80
2022-11-27T19:33:56.806Z,3.13
2022-11-27T19:36:43.761Z,3.30
2022-11-27T19:39:30.724Z,2.67
2022-11-27T19:42:17.706Z,2.73
2022-11-27T19:45:05.116Z,3.10
2022-11-27T19:47:52.956Z,3.57
2022-11-27T19:50:40.016Z,3.90
2022-11-27T19:53:27.101Z,3.00
2022-11-27T19:56:18.392Z,3.47
2022-11-27T19:59:06.489Z,3.07
2022-11-27T20:01:53.631Z,3.20
2022-11-27T20:04:41.332Z,24.27
2022-11-27T20:07:29.327Z,10.77
2022-11-27T20:10:16.660Z,19.50
2022-11-27T20:13:03.632Z,8.33
2022-11-27T20:15:51.152Z,40.57
2022-11-27T20:18:39.191Z,4.80
2022-11-27T20:21:27.032Z,3.87
2022-11-27T20:24:15.684Z,3.40
2022-11-27T20:27:02.665Z,3.23
2022-11-27T20:29:50.016Z,3.47
2022-11-27T20:32:37.939Z,3.00
2022-11-27T20:35:25.375Z,3.10
2022-11-27T20:38:13.370Z,3.93
2022-11-27T20:41:00.767Z,3.43
2022-11-27T20:43:49.567Z,3.63
2022-11-27T20:46:37.401Z,3.60
2022-11-27T20:49:25.256Z,3.47
2022-11-27T20:52:13.796Z,3.27
2022-11-27T20:55:01.453Z,2.80
2022-11-27T20:57:53.469Z,3.10
2022-11-27T21:00:41.856Z,3.17
2022-11-27T21:03:30.076Z,3.23
2022-11-27T21:06:19.819Z,5.40
2022-11-27T21:09:08.302Z,3.70
2022-11-27T21:11:56.644Z,3.57
2022-11-27T21:14:44.620Z,3.20
2022-11-27T21:17:32.797Z,3.70
2022-11-27T21:20:20.968Z,3.90
2022-11-27T21:23:09.552Z,3.67
2022-11-27T21:25:56.960Z,3.30
2022-11-27T21:28:45.010Z,3.60
2022-11-27T21:31:37.278Z,3.10
2022-11-27T21:34:25.785Z,3.40
2022-11-27T21:37:13.464Z,3.60
2022-11-27T21:40:00.607Z,3.70
2022-11-27T21:42:47.744Z,3.93
2022-11-27T21:45:37.534Z,3.47
2022-11-27T21:48:24.604Z,3.63
2022-11-27T21:51:12.896Z,3.70
2022-11-27T21:54:00.034Z,3.80
2022-11-27T21:56:51.668Z,3.80
2022-11-27T21:59:38.647Z,3.87
2022-11-27T22:02:25.688Z,4.57
2022-11-27T22:05:13.014Z,5.03
2022-11-27T22:08:00.614Z,5.03
2022-11-27T22:10:47.704Z,5.03
2022-11-27T22:13:35.148Z,4.30
2022-11-27T22:16:24.737Z,4.93
2022-11-27T22:19:11.887Z,4.37
2022-11-27T22:21:58.948Z,5.43
2022-11-27T22:24:46.008Z,5.60
2022-11-27T22:27:33.074Z,5.50
2022-11-27T22:30:20.096Z,5.00
2022-11-27T22:33:07.092Z,5.57
2022-11-27T22:35:54.074Z,4.63
2022-11-27T22:38:41.676Z,5.30
2022-11-27T22:41:30.347Z,5.30
2022-11-27T22:44:20.964Z,5.13
2022-11-27T22:47:07.919Z,4.83
2022-11-27T22:49:54.930Z,5.27
2022-11-27T22:52:41.888Z,5.30
2022-11-27T22:55:28.893Z,5.20
2022-11-27T22:58:15.808Z,4.87
2022-11-27T23:01:02.825Z,5.37
2022-11-27T23:03:50.146Z,5.00
2022-11-27T23:06:37.276Z,5.07
2022-11-27T23:09:24.308Z,5.40
2022-11-27T23:12:11.313Z,5.07
2022-11-27T23:14:58.326Z,5.10
2022-11-27T23:17:45.275Z,5.10
2022-11-27T23:20:32.229Z,4.87
2022-11-27T23:23:19.267Z,4.73
2022-11-27T23:26:09.066Z,4.40
2022-11-27T23:28:58.200Z,4.57
2022-11-27T23:31:45.218Z,4.73
2022-11-27T23:34:32.188Z,4.50
2022-11-27T23:37:19.193Z,4.20
2022-11-27T23:40:06.931Z,4.73
2022-11-27T23:42:54.024Z,4.50
2022-11-27T23:45:41.013Z,4.43
2022-11-27T23:48:27.968Z,4.50
2022-11-27T23:51:19.978Z,4.43
2022-11-27T23:54:09.686Z,4.37
2022-11-27T23:56:57.367Z,4.30
2022-11-27T23:59:44.440Z,4.37
